Time;durP1;ratioP1;P1;durP2;ratioP2;P2;SDS_P1;SDS_P2;PMS_P1;PMS_P2;Temp;Humidity;BMP_temperature;BMP_pressure;BME280_temperature;BME280_humidity;BME280_pressure;Samples;Min_cycle;Max_cycle;Signal;HPM_P1;HPM_P2
2022/08/07 00:10:52;;;;;;;6.43;1.63;;;;;;;26.22;29.81;102221.91;5052706;28;20067;-42
2022/08/07 00:13:22;;;;;;;5.00;1.50;;;;;;;26.27;29.61;102221.13;5036500;28;20032;-55
2022/08/07 00:15:51;;;;;;;3.28;1.20;;;;;;;26.10;29.63;102203.19;5052739;28;20032;-54
2022/08/07 00:18:22;;;;;;;3.17;1.42;;;;;;;26.08;29.70;102207.50;5052901;28;20033;-46
2022/08/07 00:20:51;;;;;;;3.92;1.50;;;;;;;25.90;30.10;102198.34;5053029;28;20136;-43
2022/08/07 00:23:20;;;;;;;2.70;1.35;;;;;;;25.88;30.03;102181.63;5053402;28;20117;-47
2022/08/07 00:25:48;;;;;;;3.35;1.17;;;;;;;25.98;29.92;102206.41;5052808;28;20041;-42
2022/08/07 00:28:17;;;;;;;3.85;1.40;;;;;;;26.09;29.71;102204.03;5036657;28;20037;-43
2022/08/07 00:30:46;;;;;;;6.25;1.80;;;;;;;26.12;29.71;102198.88;5055762;28;20041;-54
2022/08/07 00:33:14;;;;;;;2.90;1.00;;;;;;;26.02;29.71;102199.47;5095197;28;20106;-42
2022/08/07 00:35:43;;;;;;;7.47;1.83;;;;;;;25.90;29.95;102181.66;5095034;28;20482;-43
2022/08/07 00:38:11;;;;;;;6.07;1.45;;;;;;;25.97;29.93;102182.72;5094391;28;20036;-42
2022/08/07 00:40:40;;;;;;;8.85;1.00;;;;;;;25.98;29.89;102184.50;5095069;28;20443;-42
2022/08/07 00:43:10;;;;;;;3.17;1.40;;;;;;;25.90;29.82;102186.91;5094412;28;20024;-43
2022/08/07 00:45:40;;;;;;;7.70;1.58;;;;;;;25.83;29.48;102167.47;5094690;28;20024;-42
2022/08/07 00:48:09;;;;;;;3.38;1.35;;;;;;;25.86;29.75;102192.97;5094660;28;20042;-42
2022/08/07 00:50:39;;;;;;;3.45;1.00;;;;;;;25.69;30.21;102193.44;5094427;28;20027;-43
2022/08/07 00:53:08;;;;;;;4.30;1.38;;;;;;;25.82;30.13;102189.34;5094637;28;20031;-50
2022/08/07 00:55:36;;;;;;;3.28;1.17;;;;;;;25.77;29.96;102180.50;5094638;28;20024;-42
2022/08/07 00:58:06;;;;;;;3.70;1.10;;;;;;;25.80;29.94;102183.19;5093072;28;20124;-44
2022/08/07 01:00:34;;;;;;;3.38;1.20;;;;;;;25.81;29.72;102182.34;5094628;28;20020;-43
2022/08/07 01:03:04;;;;;;;3.97;1.30;;;;;;;25.77;30.00;102175.22;5093262;28;20158;-42
2022/08/07 01:05:33;;;;;;;1.95;1.08;;;;;;;25.76;29.80;102176.09;5094493;28;20551;-43
2022/08/07 01:08:01;;;;;;;4.13;1.20;;;;;;;25.68;29.92;102175.91;5092954;28;20027;-42
2022/08/07 01:10:30;;;;;;;4.03;1.33;;;;;;;25.75;30.12;102175.19;5094291;28;20031;-42
2022/08/07 01:12:59;;;;;;;2.65;1.10;;;;;;;25.78;30.00;102169.13;5093213;28;20032;-45
2022/08/07 01:15:28;;;;;;;3.85;1.23;;;;;;;25.67;30.02;102178.47;5094292;28;20020;-42
2022/08/07 01:17:56;;;;;;;3.80;1.20;;;;;;;25.58;30.20;102177.41;5092315;28;20089;-42
2022/08/07 01:20:34;;;;;;;4.70;1.25;;;;;;;25.63;29.99;102173.16;5094056;28;20122;-44
2022/08/07 01:23:03;;;;;;;6.35;1.30;;;;;;;25.68;29.72;102168.00;5093852;28;20129;-43
2022/08/07 01:25:31;;;;;;;4.72;1.20;;;;;;;25.72;29.72;102174.22;5094211;28;20050;-47
2022/08/07 01:28:00;;;;;;;2.55;0.90;;;;;;;25.70;29.95;102161.06;5094008;28;20032;-43
2022/08/07 01:30:30;;;;;;;4.47;1.40;;;;;;;25.56;29.85;102167.72;5092219;28;20055;-42
2022/08/07 01:32:58;;;;;;;4.88;1.40;;;;;;;25.55;30.06;102173.81;5075764;28;20031;-45
2022/08/07 01:35:27;;;;;;;2.92;1.02;;;;;;;25.57;29.88;102157.22;5093712;28;20498;-43
2022/08/07 01:37:56;;;;;;;4.63;1.80;;;;;;;25.61;30.19;102164.34;5093614;28;20032;-43
2022/08/07 01:40:23;;;;;;;3.03;1.02;;;;;;;25.59;29.82;102160.78;5093082;28;20104;-43
2022/08/07 01:42:52;;;;;;;3.90;1.20;;;;;;;25.60;29.57;102159.94;5092674;28;20052;-44
2022/08/07 01:45:21;;;;;;;3.90;1.27;;;;;;;25.53;29.85;102157.13;5093637;28;20058;-48
2022/08/07 01:47:50;;;;;;;3.65;1.02;;;;;;;25.49;30.02;102158.75;5093169;28;20092;-47
2022/08/07 01:50:17;;;;;;;3.22;0.75;;;;;;;25.43;30.10;102156.00;5093491;28;20022;-45
2022/08/07 01:52:46;;;;;;;6.13;1.20;;;;;;;25.34;30.16;102157.47;5093346;28;20028;-46
2022/08/07 01:55:15;;;;;;;3.35;1.00;;;;;;;25.32;29.93;102156.53;5092279;28;20593;-43
2022/08/07 01:57:44;;;;;;;2.65;1.02;;;;;;;25.36;30.11;102157.53;5092155;28;20061;-45
2022/08/07 02:00:13;;;;;;;2.63;1.08;;;;;;;25.40;29.93;102153.25;5092144;28;20024;-44
2022/08/07 02:02:53;;;;;;;4.30;1.23;;;;;;;25.47;29.84;102157.84;5093318;28;20024;-47
2022/08/07 02:05:43;;;;;;;2.78;0.70;;;;;;;25.40;29.70;102158.50;5093526;28;20020;-43
2022/08/07 02:08:15;;;;;;;5.05;1.58;;;;;;;25.36;29.96;102152.28;5087218;28;20036;-44
2022/08/07 02:10:44;;;;;;;2.80;1.00;;;;;;;25.36;29.94;102144.41;5092057;28;20028;-44
2022/08/07 02:13:12;;;;;;;1.85;0.82;;;;;;;25.27;29.87;102139.81;5093030;28;20099;-43
2022/08/07 02:15:41;;;;;;;3.33;1.00;;;;;;;25.36;29.47;102148.75;5093361;28;20161;-44
2022/08/07 02:18:12;;;;;;;1.75;0.63;;;;;;;25.34;29.54;102144.34;5092647;28;20028;-45
2022/08/07 02:20:40;;;;;;;2.78;1.02;;;;;;;25.20;29.73;102147.47;5091816;28;20020;-45
2022/08/07 02:23:09;;;;;;;3.15;1.13;;;;;;;25.27;29.39;102147.69;5091824;28;20059;-43
2022/08/07 02:25:38;;;;;;;4.47;1.17;;;;;;;25.06;29.69;102141.84;5093187;28;20107;-43
2022/08/07 02:28:08;;;;;;;9.63;1.50;;;;;;;25.07;29.92;102144.50;5091957;28;20073;-44
2022/08/07 02:30:37;;;;;;;4.63;0.77;;;;;;;25.15;29.76;102142.13;5091279;28;20048;-47
2022/08/07 02:33:07;;;;;;;3.80;1.33;;;;;;;25.13;29.67;102142.06;5092692;28;20030;-50
2022/08/07 02:35:36;;;;;;;3.33;0.98;;;;;;;25.17;29.61;102133.41;5093277;28;20356;-45
2022/08/07 02:38:05;;;;;;;1.77;0.73;;;;;;;25.13;29.48;102128.91;5091547;28;20089;-44
2022/08/07 02:40:34;;;;;;;4.28;1.05;;;;;;;25.15;29.87;102134.25;5091879;28;20028;-43
2022/08/07 02:43:02;;;;;;;6.03;1.00;;;;;;;25.29;29.31;102139.81;5093653;28;20036;-46
2022/08/07 02:45:32;;;;;;;3.17;1.00;;;;;;;25.24;29.53;102146.69;5092756;28;20028;-53
2022/08/07 02:48:01;;;;;;;2.78;1.05;;;;;;;25.22;29.21;102136.16;5091629;28;20046;-44
2022/08/07 02:50:30;;;;;;;4.78;1.13;;;;;;;25.17;29.49;102137.75;5093086;28;20332;-45
2022/08/07 02:53:03;;;;;;;4.28;0.75;;;;;;;24.98;29.61;102129.41;5093006;28;20020;-46
2022/08/07 02:55:34;;;;;;;2.95;0.70;;;;;;;25.01;29.53;102139.97;5091711;28;20090;-44
2022/08/07 02:58:07;;;;;;;1.98;0.85;;;;;;;24.99;29.63;102139.03;5092764;28;20039;-49
2022/08/07 03:00:36;;;;;;;3.97;1.08;;;;;;;24.90;29.70;102135.31;5095371;28;20028;-44
2022/08/07 03:03:08;;;;;;;3.00;1.17;;;;;;;24.98;29.85;102133.75;5097108;28;20028;-44
2022/08/07 03:05:36;;;;;;;3.58;1.00;;;;;;;25.02;29.60;102136.50;5096727;28;20419;-44
2022/08/07 03:08:06;;;;;;;3.58;1.17;;;;;;;24.90;30.10;102125.69;5094979;28;20052;-46
2022/08/07 03:10:35;;;;;;;5.40;0.90;;;;;;;25.02;29.59;102140.88;5095005;28;20028;-43
2022/08/07 03:13:04;;;;;;;2.47;0.85;;;;;;;24.98;30.00;102137.28;5096744;28;20047;-44
2022/08/07 03:15:33;;;;;;;2.88;0.90;;;;;;;24.99;29.81;102131.16;5095510;28;20028;-44
2022/08/07 03:18:02;;;;;;;4.72;0.88;;;;;;;24.92;29.66;102124.00;5094744;28;20024;-49
2022/08/07 03:20:31;;;;;;;5.78;0.90;;;;;;;24.89;29.77;102137.03;5096316;28;20531;-46
2022/08/07 03:22:59;;;;;;;2.50;0.82;;;;;;;24.84;30.16;102131.66;5096151;28;20059;-44
2022/08/07 03:25:28;;;;;;;3.85;0.90;;;;;;;24.95;29.77;102129.34;5096048;28;20074;-52
2022/08/07 03:27:58;;;;;;;2.30;0.77;;;;;;;24.89;30.39;102131.78;5094752;28;20383;-45
2022/08/07 03:30:27;;;;;;;6.20;0.93;;;;;;;24.89;30.15;102137.03;5104747;28;20047;-45
2022/08/07 03:32:56;;;;;;;4.13;1.35;;;;;;;24.69;30.56;102137.31;5098679;28;20371;-43
2022/08/07 03:35:26;;;;;;;2.13;0.90;;;;;;;24.56;30.64;102129.94;5098050;28;20019;-44
2022/08/07 03:37:57;;;;;;;2.38;0.80;;;;;;;24.46;30.71;102123.53;5116118;28;20046;-46
2022/08/07 03:40:27;;;;;;;4.35;1.50;;;;;;;24.76;30.42;102130.53;5098350;28;20054;-44
2022/08/07 03:42:55;;;;;;;2.92;0.90;;;;;;;24.80;30.26;102135.03;5116436;28;20110;-44
2022/08/07 03:45:26;;;;;;;1.55;0.77;;;;;;;24.80;30.63;102139.41;5116397;28;20020;-43
2022/08/07 03:47:54;;;;;;;2.38;0.80;;;;;;;24.91;30.49;102134.44;5098173;28;20063;-43
2022/08/07 03:50:23;;;;;;;2.70;0.90;;;;;;;24.80;30.68;102134.16;5081528;28;20034;-47
2022/08/07 03:52:53;;;;;;;3.63;0.82;;;;;;;24.79;30.99;102132.38;5081125;28;20055;-45
2022/08/07 03:55:21;;;;;;;1.85;0.68;;;;;;;24.72;30.80;102137.44;5115958;28;20023;-48
2022/08/07 03:57:51;;;;;;;3.42;0.80;;;;;;;24.71;30.80;102132.16;5115797;28;20093;-45
2022/08/07 04:00:20;;;;;;;2.15;0.88;;;;;;;24.69;31.22;102126.81;5116130;28;20027;-52
2022/08/07 04:02:49;;;;;;;4.22;1.02;;;;;;;24.83;30.84;102134.22;5115311;28;20067;-44
2022/08/07 04:05:21;;;;;;;5.70;1.00;;;;;;;24.72;30.93;102137.44;5097365;28;20058;-47
2022/08/07 04:07:49;;;;;;;2.83;0.68;;;;;;;24.77;31.12;102128.81;5115504;28;20363;-47
2022/08/07 04:10:18;;;;;;;3.33;0.90;;;;;;;24.77;31.05;102137.56;5115621;28;20073;-53
2022/08/07 04:12:47;;;;;;;4.32;0.93;;;;;;;24.80;31.10;102135.03;5097371;28;20477;-44
2022/08/07 04:15:16;;;;;;;2.63;0.70;;;;;;;24.81;31.17;102138.56;5115822;28;20027;-50
2022/08/07 04:17:46;;;;;;;3.67;0.70;;;;;;;24.66;31.42;102131.97;5097648;28;20768;-44
2022/08/07 04:20:15;;;;;;;3.15;0.70;;;;;;;24.68;31.25;102140.78;5115125;28;20100;-44
2022/08/07 04:22:44;;;;;;;1.73;1.00;;;;;;;24.67;31.62;102146.88;5097584;28;20054;-47
2022/08/07 04:25:13;;;;;;;4.20;1.55;;;;;;;24.62;31.58;102142.34;5096947;28;20028;-45
2022/08/07 04:27:42;;;;;;;2.47;0.73;;;;;;;24.62;31.82;102131.84;5115038;28;20057;-50
2022/08/07 04:30:10;;;;;;;2.30;0.77;;;;;;;24.60;31.56;102121.31;5114885;28;20076;-48
2022/08/07 04:32:39;;;;;;;2.45;1.00;;;;;;;24.62;31.56;102123.97;5079851;28;20359;-43
2022/08/07 04:35:08;;;;;;;2.78;1.00;;;;;;;24.68;31.46;102132.03;5097452;28;20019;-46
2022/08/07 04:37:37;;;;;;;1.38;0.70;;;;;;;24.51;31.65;102116.69;5114996;28;20028;-46
2022/08/07 04:40:06;;;;;;;6.05;1.08;;;;;;;24.52;31.93;102128.06;5114983;28;20146;-44
2022/08/07 04:42:35;;;;;;;4.10;1.08;;;;;;;24.60;32.02;102130.91;5115468;28;20023;-43
2022/08/07 04:45:05;;;;;;;3.53;0.95;;;;;;;24.62;32.10;102140.63;5115198;28;20020;-44
2022/08/07 04:47:55;;;;;;;4.60;1.10;;;;;;;24.62;32.13;102137.09;5097170;28;20504;-44
2022/08/07 04:50:43;;;;;;;2.25;0.70;;;;;;;24.59;31.73;102137.91;5096899;28;20115;-43
2022/08/07 04:53:17;;;;;;;3.17;0.88;;;;;;;24.56;31.66;102122.06;5096909;28;20089;-47
2022/08/07 04:55:59;;;;;;;2.38;0.90;;;;;;;24.41;32.00;102117.25;5096680;28;20115;-43
2022/08/07 04:58:47;;;;;;;3.92;1.00;;;;;;;24.57;32.23;102137.84;5096965;28;20035;-47
2022/08/07 05:01:35;;;;;;;5.68;0.85;;;;;;;24.67;31.76;102135.50;5114101;28;20041;-44
2022/08/07 05:04:26;;;;;;;1.45;0.73;;;;;;;24.53;32.04;102125.50;5106796;28;20067;-45
2022/08/07 05:07:18;;;;;;;1.77;0.77;;;;;;;24.50;32.07;102132.38;5107938;28;20071;-45
2022/08/07 05:10:06;;;;;;;5.07;0.90;;;;;;;24.45;32.54;102139.25;5113957;28;20028;-55
2022/08/07 05:12:42;;;;;;;4.80;1.30;;;;;;;24.55;32.55;102133.41;5106932;28;20035;-47
2022/08/07 05:15:15;;;;;;;1.63;0.70;;;;;;;24.57;32.47;102143.09;5114675;28;20383;-45
2022/08/07 05:17:47;;;;;;;7.00;0.90;;;;;;;24.58;32.60;102146.63;5095461;28;20062;-43
2022/08/07 05:20:20;;;;;;;3.22;0.90;;;;;;;24.50;32.50;102146.41;5114131;28;20375;-43
2022/08/07 05:22:51;;;;;;;3.17;1.05;;;;;;;24.44;32.88;102146.22;5095189;28;20032;-43
2022/08/07 05:25:21;;;;;;;3.72;1.73;;;;;;;24.49;32.87;102152.50;5096035;28;20055;-50
2022/08/07 05:27:50;;;;;;;2.33;1.00;;;;;;;24.52;32.75;102149.06;5114247;28;20024;-46
2022/08/07 05:30:19;;;;;;;4.05;0.90;;;;;;;24.50;32.87;102158.59;5079044;28;20035;-43
2022/08/07 05:32:46;;;;;;;3.85;1.13;;;;;;;24.59;32.85;102161.53;5114294;28;20028;-44
2022/08/07 05:35:17;;;;;;;3.83;1.00;;;;;;;24.50;33.09;102158.59;5114019;28;20376;-43
2022/08/07 05:37:46;;;;;;;2.33;0.82;;;;;;;24.42;32.93;102161.91;5114052;28;20055;-49
2022/08/07 05:40:16;;;;;;;4.28;0.93;;;;;;;24.45;32.99;102163.72;5096000;28;20070;-46
2022/08/07 05:42:46;;;;;;;2.30;0.93;;;;;;;24.43;33.19;102168.94;5113681;28;20431;-47
2022/08/07 05:45:15;;;;;;;6.38;1.10;;;;;;;24.45;33.46;102168.09;5113778;28;20458;-46
2022/08/07 05:47:44;;;;;;;5.20;1.02;;;;;;;24.47;33.31;102163.78;5113440;28;20036;-46
2022/08/07 05:50:13;;;;;;;3.63;0.90;;;;;;;24.56;33.11;102161.44;5095669;28;20466;-46
2022/08/07 05:52:42;;;;;;;3.85;1.10;;;;;;;24.62;33.27;102166.88;5113581;28;20028;-43
2022/08/07 05:55:10;;;;;;;4.93;0.80;;;;;;;24.63;32.99;102173.91;5095588;28;20024;-45
2022/08/07 05:57:40;;;;;;;2.72;1.10;;;;;;;24.67;33.59;102177.50;5113705;28;20051;-49
2022/08/07 06:00:09;;;;;;;3.95;0.98;;;;;;;24.61;33.27;102167.72;5113873;28;20034;-45
2022/08/07 06:02:38;;;;;;;2.08;0.88;;;;;;;24.80;33.05;102173.53;5095441;28;20106;-44
2022/08/07 06:05:10;;;;;;;3.67;1.17;;;;;;;24.77;33.01;102165.56;5095865;28;20031;-45
2022/08/07 06:07:38;;;;;;;3.25;0.80;;;;;;;24.87;33.19;102180.72;5113387;28;20539;-44
2022/08/07 06:10:07;;;;;;;6.50;0.98;;;;;;;24.93;33.31;102177.38;5113678;28;20030;-50
2022/08/07 06:12:35;;;;;;;5.70;1.77;;;;;;;24.92;33.21;102180.84;5095646;28;20032;-43
2022/08/07 06:15:04;;;;;;;4.22;1.05;;;;;;;25.03;32.85;102175.03;5113425;28;20081;-48
2022/08/07 06:17:33;;;;;;;4.57;1.15;;;;;;;25.12;32.79;102178.78;5113471;28;20056;-42
2022/08/07 06:20:02;;;;;;;3.17;1.20;;;;;;;25.18;32.65;102168.44;5095128;28;20098;-45
2022/08/07 06:22:33;;;;;;;4.82;1.00;;;;;;;25.23;33.05;102185.22;5113522;28;20103;-44
2022/08/07 06:25:01;;;;;;;2.50;0.90;;;;;;;25.22;33.15;102175.53;5095401;28;20028;-44
2022/08/07 06:27:30;;;;;;;4.82;1.27;;;;;;;25.25;33.19;102187.88;5113288;28;20077;-43
2022/08/07 06:30:00;;;;;;;4.40;1.20;;;;;;;25.26;33.35;102192.28;5112463;28;20126;-46
2022/08/07 06:32:28;;;;;;;5.43;1.08;;;;;;;25.32;33.59;102190.69;5113472;28;20535;-54
2022/08/07 06:34:59;;;;;;;4.75;1.13;;;;;;;25.34;33.74;102191.63;5115549;28;20027;-44
2022/08/07 06:37:27;;;;;;;3.67;1.23;;;;;;;25.39;33.69;102193.50;5117235;28;20088;-47
2022/08/07 06:39:56;;;;;;;5.32;1.48;;;;;;;25.41;33.66;102192.69;5117340;28;20440;-47
2022/08/07 06:42:28;;;;;;;4.32;1.15;;;;;;;25.57;33.98;102196.63;5117600;28;20028;-51
2022/08/07 06:44:57;;;;;;;6.00;1.58;;;;;;;25.50;33.53;102188.56;5117368;28;20019;-49
2022/08/07 06:47:26;;;;;;;5.50;1.23;;;;;;;25.57;33.84;102194.00;5117226;28;20035;-45
2022/08/07 06:49:55;;;;;;;3.25;1.38;;;;;;;25.66;33.66;102200.34;5117172;28;20028;-43
2022/08/07 06:52:28;;;;;;;4.00;1.35;;;;;;;25.63;33.79;102193.28;5099344;28;20524;-47
2022/08/07 06:54:58;;;;;;;5.47;1.20;;;;;;;25.67;34.08;102196.84;5116848;28;20046;-44
2022/08/07 06:57:29;;;;;;;7.05;1.23;;;;;;;25.67;34.23;102204.75;5117232;28;20521;-44
2022/08/07 06:59:59;;;;;;;2.78;1.10;;;;;;;25.74;33.66;102196.19;5099305;28;20067;-44
2022/08/07 07:02:29;;;;;;;2.65;1.00;;;;;;;25.81;33.34;102190.25;5116857;28;20070;-48
2022/08/07 07:04:57;;;;;;;8.95;1.40;;;;;;;25.90;33.78;102189.53;5116938;28;20026;-47
2022/08/07 07:07:26;;;;;;;9.45;1.88;;;;;;;25.96;33.60;102196.72;5098944;28;20020;-43
2022/08/07 07:09:55;;;;;;;7.25;1.73;;;;;;;25.87;33.26;102198.25;5116742;28;20507;-44
2022/08/07 07:12:42;;;;;;;3.90;1.35;;;;;;;25.91;34.11;102194.84;5098997;28;20076;-44
2022/08/07 07:15:20;;;;;;;8.63;1.58;;;;;;;25.87;34.04;102202.63;5109420;28;20494;-44
2022/08/07 07:18:09;;;;;;;7.65;1.40;;;;;;;25.80;34.27;102198.97;5116880;28;20111;-46
2022/08/07 07:20:44;;;;;;;5.25;1.20;;;;;;;25.94;33.93;102196.66;5108987;28;20402;-45
2022/08/07 07:23:12;;;;;;;3.50;1.20;;;;;;;25.94;33.57;102199.28;5098196;28;20042;-43
2022/08/07 07:25:43;;;;;;;4.43;1.50;;;;;;;26.03;33.39;102204.78;5081919;28;20110;-44
2022/08/07 07:28:33;;;;;;;4.28;1.20;;;;;;;26.02;33.48;102200.38;5117044;28;20023;-45
2022/08/07 07:31:07;;;;;;;5.05;1.30;;;;;;;25.95;33.39;102190.56;5098135;28;20043;-43
2022/08/07 07:33:36;;;;;;;5.55;2.13;;;;;;;25.97;33.68;102198.50;5099453;28;20031;-44
2022/08/07 07:36:06;;;;;;;3.88;1.33;;;;;;;26.06;33.31;102199.56;5098328;28;20028;-43
2022/08/07 07:38:35;;;;;;;5.60;1.20;;;;;;;26.08;33.15;102192.63;5098676;28;20049;-43
2022/08/07 07:41:04;;;;;;;4.10;1.10;;;;;;;26.17;33.22;102191.09;5098746;28;20028;-44
2022/08/07 07:43:34;;;;;;;4.05;1.42;;;;;;;26.25;32.99;102192.16;5116519;28;20015;-46
2022/08/07 07:46:04;;;;;;;4.47;1.50;;;;;;;26.23;33.18;102194.75;5097337;28;20031;-44
2022/08/07 07:48:32;;;;;;;3.92;1.00;;;;;;;26.22;33.21;102185.09;5116199;28;20023;-46
2022/08/07 07:51:03;;;;;;;3.75;1.25;;;;;;;26.23;33.27;102186.88;5098546;28;20020;-51
2022/08/07 07:53:33;;;;;;;5.68;1.60;;;;;;;26.31;33.07;102186.16;5098414;28;20032;-45
2022/08/07 07:56:00;;;;;;;3.63;1.23;;;;;;;26.32;32.87;102191.44;5098186;28;20031;-44
2022/08/07 07:58:33;;;;;;;7.57;1.40;;;;;;;26.30;32.85;102181.75;5098970;28;20063;-49
2022/08/07 08:01:02;;;;;;;4.75;1.30;;;;;;;26.46;32.58;102191.75;5117592;28;20046;-44
2022/08/07 08:03:32;;;;;;;6.50;1.45;;;;;;;26.49;32.30;102183.91;5117157;28;20019;-43
2022/08/07 08:06:00;;;;;;;6.55;1.98;;;;;;;26.47;32.16;102190.91;5115984;28;20566;-44
2022/08/07 08:08:31;;;;;;;10.27;1.70;;;;;;;26.41;32.60;102179.34;5097852;28;20034;-43
2022/08/07 08:11:01;;;;;;;8.23;1.33;;;;;;;26.51;32.21;102192.72;5115658;28;20032;-43
2022/08/07 08:13:30;;;;;;;6.03;1.10;;;;;;;26.49;32.28;102189.16;5097843;28;20115;-43
2022/08/07 08:16:02;;;;;;;3.22;1.20;;;;;;;26.49;31.90;102189.16;5115898;28;20382;-44
2022/08/07 08:18:30;;;;;;;2.95;0.90;;;;;;;26.50;31.94;102185.69;5115370;28;20466;-44
2022/08/07 08:21:01;;;;;;;3.38;1.10;;;;;;;26.63;31.95;102185.97;5080787;28;20035;-44
2022/08/07 08:29:07;;;;;;;5.50;0.95;;;;;;;26.84;30.77;102175.91;5107731;28;20043;-43
2022/08/07 08:31:39;;;;;;;5.40;1.20;;;;;;;26.67;31.19;102165.00;5096909;28;20711;-44
2022/08/07 08:34:09;;;;;;;3.80;1.00;;;;;;;26.77;31.12;102184.50;5115473;28;20031;-43
2022/08/07 08:36:40;;;;;;;4.13;1.13;;;;;;;26.84;30.63;102178.53;5097407;28;20027;-50
2022/08/07 08:39:09;;;;;;;1.75;0.88;;;;;;;26.92;30.66;102178.69;5097208;28;20024;-43
2022/08/07 08:41:48;;;;;;;4.15;1.10;;;;;;;26.95;30.71;102183.13;5115206;28;20165;-43
2022/08/07 08:44:36;;;;;;;4.75;1.45;;;;;;;26.92;30.35;102177.81;5097199;28;20072;-44
2022/08/07 08:47:08;;;;;;;6.68;1.05;;;;;;;26.90;30.15;102183.03;5088161;28;20059;-43
2022/08/07 08:49:59;;;;;;;3.72;0.80;;;;;;;26.89;30.40;102178.59;5115035;28;20019;-45
2022/08/07 08:52:35;;;;;;;3.10;1.23;;;;;;;27.00;30.41;102170.91;5096341;28;20020;-43
2022/08/07 08:55:41;;;;;;;5.43;0.88;;;;;;;27.01;30.01;102171.84;5115079;28;20490;-44
2022/08/07 08:58:19;;;;;;;1.95;1.00;;;;;;;27.08;29.75;102165.81;5113672;28;20032;-44
2022/08/07 09:00:54;;;;;;;4.30;1.30;;;;;;;27.12;29.94;102167.63;5114998;28;20162;-44
2022/08/07 09:03:45;;;;;;;2.40;0.80;;;;;;;27.19;29.44;102160.72;5097215;28;20022;-44
2022/08/07 09:06:39;;;;;;;2.67;1.00;;;;;;;27.26;29.50;102157.38;5103671;28;20038;-44
2022/08/07 09:09:11;;;;;;;4.55;0.80;;;;;;;27.30;29.37;102161.84;5089004;28;20050;-43
2022/08/07 09:11:48;;;;;;;4.05;1.33;;;;;;;27.29;29.32;102160.06;5079407;28;20020;-50
2022/08/07 09:14:40;;;;;;;3.13;0.85;;;;;;;27.26;29.37;102158.25;5096660;28;20106;-43
2022/08/07 09:17:26;;;;;;;3.75;0.82;;;;;;;27.32;28.75;102146.91;5096861;28;20402;-45
2022/08/07 09:20:32;;;;;;;4.30;1.15;;;;;;;27.39;28.99;102159.34;5111154;28;20114;-46
2022/08/07 09:23:27;;;;;;;5.43;0.90;;;;;;;27.48;28.51;102150.75;5107433;28;20527;-45
2022/08/07 09:26:33;;;;;;;2.20;0.70;;;;;;;27.53;28.44;102137.66;5095611;28;20039;-44
2022/08/07 09:29:13;;;;;;;3.58;0.90;;;;;;;27.48;28.55;102144.56;5092831;28;20359;-43
2022/08/07 09:31:57;;;;;;;2.38;0.85;;;;;;;27.36;28.68;102142.63;5095834;28;20092;-45
2022/08/07 09:34:30;;;;;;;3.65;1.23;;;;;;;27.39;28.64;102143.53;5114631;28;20466;-44
2022/08/07 09:37:07;;;;;;;6.50;1.02;;;;;;;27.50;28.37;102134.94;5096175;28;20035;-43
2022/08/07 09:40:04;;;;;;;3.63;0.85;;;;;;;27.55;28.48;102149.97;5113793;28;20367;-44
2022/08/07 09:42:54;;;;;;;4.90;1.35;;;;;;;27.51;28.06;102142.91;5113885;28;20054;-44
2022/08/07 09:46:01;;;;;;;3.63;0.90;;;;;;;27.55;27.77;102133.28;5087621;28;20063;-44
2022/08/07 09:48:34;;;;;;;5.30;0.90;;;;;;;27.64;27.51;102143.09;5105768;28;20032;-44
2022/08/07 09:51:22;;;;;;;4.20;0.90;;;;;;;27.71;27.46;102137.94;5095958;28;20024;-46
2022/08/07 09:53:52;;;;;;;2.90;0.80;;;;;;;27.62;27.60;102134.28;5087278;28;20505;-45
2022/08/07 09:56:46;;;;;;;2.67;0.80;;;;;;;27.43;28.22;102124.28;5095638;28;20389;-44
2022/08/07 09:59:27;;;;;;;3.13;0.90;;;;;;;27.52;27.94;102127.97;5083564;28;20039;-49
2022/08/07 10:02:18;;;;;;;6.85;1.25;;;;;;;27.57;27.92;102126.28;5102693;28;20595;-54
2022/08/07 10:05:06;;;;;;;6.60;2.15;;;;;;;27.63;27.88;102131.69;5095052;28;20036;-45
2022/08/07 10:07:56;;;;;;;2.33;0.90;;;;;;;27.70;27.90;102124.75;5075550;28;20583;-53
2022/08/07 10:10:34;;;;;;;2.92;1.00;;;;;;;27.69;27.66;102126.47;5092177;28;20397;-50
2022/08/07 10:13:07;;;;;;;4.18;1.25;;;;;;;27.75;27.59;102123.03;5102257;28;20675;-48
2022/08/07 10:16:13;;;;;;;4.05;1.10;;;;;;;27.67;27.65;102111.50;5101149;28;20109;-45
2022/08/07 10:19:19;;;;;;;3.20;0.65;;;;;;;27.74;27.62;102116.00;5072381;28;20109;-45
2022/08/07 10:22:07;;;;;;;2.83;0.93;;;;;;;27.83;27.48;102120.53;5072570;28;20077;-52
2022/08/07 10:24:59;;;;;;;3.05;0.90;;;;;;;27.77;27.13;102108.13;5093573;28;20107;-56
2022/08/07 10:27:47;;;;;;;2.38;0.90;;;;;;;27.78;27.44;102119.59;5083407;28;20036;-49
2022/08/07 10:30:20;;;;;;;6.55;0.70;;;;;;;27.82;27.56;102110.84;5091814;28;20371;-56
2022/08/07 10:33:25;;;;;;;3.10;1.02;;;;;;;27.85;27.58;102105.63;5080914;28;20035;-48
2022/08/07 10:36:12;;;;;;;3.17;1.00;;;;;;;27.88;27.55;102097.75;5091830;28;20040;-47
2022/08/07 10:39:00;;;;;;;5.00;0.98;;;;;;;27.96;27.29;102088.22;5097788;28;20043;-52
2022/08/07 10:41:51;;;;;;;4.22;1.33;;;;;;;27.83;27.25;102099.44;5071181;28;20039;-45
2022/08/07 10:44:27;;;;;;;2.13;1.15;;;;;;;27.82;27.36;102093.28;5092734;28;20039;-46
2022/08/07 10:47:02;;;;;;;5.72;1.25;;;;;;;27.91;26.99;102076.72;5099504;28;20059;-49
2022/08/07 10:50:01;;;;;;;3.22;1.23;;;;;;;27.87;26.96;102093.34;5082298;28;20072;-50
2022/08/07 10:52:39;;;;;;;2.25;0.95;;;;;;;27.84;27.15;102083.66;5099736;28;20032;-47
2022/08/07 10:55:14;;;;;;;4.30;1.02;;;;;;;27.96;27.34;102079.41;5080388;28;20032;-51
2022/08/07 10:58:09;;;;;;;2.72;0.85;;;;;;;27.95;27.37;102078.53;5080290;28;20530;-52
2022/08/07 11:01:00;;;;;;;2.28;0.90;;;;;;;27.90;27.44;102067.03;5081125;28;20038;-48
2022/08/07 11:03:37;;;;;;;3.50;1.00;;;;;;;28.02;27.48;102076.84;5100963;28;20421;-53
2022/08/07 11:06:05;;;;;;;2.30;1.05;;;;;;;28.11;26.98;102063.81;5064553;28;20163;-49
2022/08/07 11:08:54;;;;;;;6.18;1.17;;;;;;;27.99;26.82;102037.25;5098321;28;20032;-52
2022/08/07 11:11:25;;;;;;;4.00;1.00;;;;;;;28.04;26.70;102049.63;5090052;28;20040;-55
2022/08/07 11:14:31;;;;;;;5.47;1.20;;;;;;;27.95;27.02;102043.34;5099914;28;20079;-44
2022/08/07 11:16:59;;;;;;;5.03;1.10;;;;;;;28.13;26.83;102058.56;5078649;28;20073;-52
2022/08/07 11:19:45;;;;;;;2.97;0.98;;;;;;;28.19;26.57;102051.63;5081801;28;20067;-51
2022/08/07 11:22:18;;;;;;;1.88;0.90;;;;;;;28.26;26.21;102043.75;5084156;28;20032;-54
2022/08/07 11:24:57;;;;;;;3.13;1.15;;;;;;;28.29;26.21;102039.44;5102215;28;20031;-54
2022/08/07 11:27:42;;;;;;;2.53;1.23;;;;;;;28.38;25.97;102045.66;5101934;28;20048;-45
2022/08/07 11:30:15;;;;;;;2.28;1.00;;;;;;;28.42;25.82;102043.06;5083606;28;20051;-44
2022/08/07 11:32:54;;;;;;;3.03;1.10;;;;;;;28.43;25.45;102044.84;5083545;28;20038;-48
2022/08/07 11:35:25;;;;;;;5.65;0.90;;;;;;;28.44;26.05;102051.88;5084307;28;20032;-54
2022/08/07 11:38:27;;;;;;;4.43;0.90;;;;;;;28.40;26.43;102036.88;5057593;28;20038;-49
2022/08/07 11:40:59;;;;;;;4.45;1.27;;;;;;;28.40;26.63;102023.69;5099925;28;20067;-49
2022/08/07 11:43:57;;;;;;;2.70;1.00;;;;;;;28.44;26.20;102032.53;5103238;28;20023;-46
2022/08/07 11:46:45;;;;;;;3.58;1.38;;;;;;;28.53;26.30;102032.63;5102016;28;20050;-44
2022/08/07 11:49:28;;;;;;;3.33;1.27;;;;;;;28.56;26.48;102031.75;5102274;28;20036;-45
2022/08/07 11:52:34;;;;;;;2.85;1.35;;;;;;;28.54;26.94;102020.34;5100090;28;20039;-43
2022/08/07 11:55:24;;;;;;;1.73;0.98;;;;;;;28.58;26.77;102020.38;5091805;28;20055;-45
2022/08/07 11:58:14;;;;;;;3.38;1.15;;;;;;;28.59;27.06;102022.13;5093488;28;20040;-52
2022/08/07 12:01:05;;;;;;;5.35;1.30;;;;;;;28.54;26.54;102012.41;5074196;28;20047;-45
2022/08/07 12:04:02;;;;;;;3.25;1.17;;;;;;;28.55;26.32;102020.34;5074481;28;20043;-44
2022/08/07 12:06:48;;;;;;;2.67;1.45;;;;;;;28.68;26.02;102021.34;5098097;28;20046;-45
2022/08/07 12:09:19;;;;;;;2.97;1.35;;;;;;;28.73;25.51;102006.44;5095692;28;20145;-47
2022/08/07 12:11:57;;;;;;;2.42;1.30;;;;;;;28.63;25.36;101994.00;5098909;28;20042;-45
2022/08/07 12:14:27;;;;;;;5.60;1.40;;;;;;;28.78;25.66;102003.88;5083262;28;20035;-46